New Braunfels, TX (78132)

11:56 AM CDT on August 28, 2016 (GMT -0500)
Oakwood Estates | | Change Station

Elev 758 ft 29.72 °N, 98.14 °W | Updated 0 second ago

Scattered Clouds
Scattered Clouds
85.1 °F
Feels Like 92 °F
N
0.0
Wind Variable Wind from NE
Gusts 5.0 mph

Today
High -- | Low -- °F
--% Chance of Precip.
Yesterday
High -- | Low -- °F
Precip. -- in
Pressure 30.01 in
Visibility 10.0 miles
Clouds Scattered Clouds 2200 ft
Heat Index 92 °F
Dew Point 73 °F
Humidity 68%
Rainfall 0.00 in
Snow Depth Not available.
7:07 AM 7:58 PM
Waning Crescent, 14% visible
METAR KBAZ 281651Z 05010KT 10SM SCT022 31/22 A3003 RMK AO2 SLP160 T03060222
Pressure 30.01 in
Visibility 10.0 miles
Clouds Scattered Clouds 2200 ft
Heat Index 92 °F
Dew Point 73 °F
Humidity 68%
Rainfall 0.00 in
Snow Depth Not available.
7:07 AM 7:58 PM
Waning Crescent, 14% visible
METAR KBAZ 281651Z 05010KT 10SM SCT022 31/22 A3003 RMK AO2 SLP160 T03060222

10-Day Weather Forecast

Almanac

Astronomy

Aug. 28, 2016 Rise Set
Actual Time
Civil Twilight
Nautical Twilight
Astronomical Twilight
Moon
Length of Visible Light
Length of Day
Tomorrow will be .
, % of the Moon is Illuminated

Today's Extremes

State Highs State Lows

Community

WunderPhotos

Upload Photos

1,935,627 photos uploaded!

WunderBlog® & News

Nearby

Air Quality

  Air Quality AQ Index Pollutant
Not available.

Snow Depth

Station Depth Elevation

Earthquake Activity

City Distance Mag. Time & Date
Minimum magnitude displayed is 2.5.

Coastal Water Temperatures

Place Temperature

Stations

Nearby Weather Stations

Station Location Temp. Windchill Dew Point Humidity Wind Precip. Elev Updated Type
                   

Watches & Warnings

There are currently no watches in effect.